Time;durP1;ratioP1;P1;durP2;ratioP2;P2;SDS_P1;SDS_P2;PMS_P1;PMS_P2;Temp;Humidity;BMP_temperature;BMP_pressure;BME280_temperature;BME280_humidity;BME280_pressure;Samples;Min_cycle;Max_cycle;Signal;HPM_P1;HPM_P2
2022/03/21 00:00:15;;;;;;;13.63;9.10;;;;;;;9.50;39.67;101233.00;1090750;39;20701;-79
2022/03/21 00:01:22;;;;;;;13.05;9.82;;;;;;;9.42;40.15;101232.69;1088187;54;20101;-79
2022/03/21 00:02:24;;;;;;;15.38;9.65;;;;;;;9.47;39.76;101235.88;1088069;54;20061;-78
2022/03/21 00:03:35;;;;;;;14.75;10.52;;;;;;;9.40;40.13;101231.94;1088462;54;20030;-79
2022/03/21 00:04:38;;;;;;;;;;;;;;;9.33;40.55;101231.50;1088459;54;20081;-78
2022/03/21 00:05:45;;;;;;;11.88;8.75;;;;;;;9.39;39.96;101230.22;1088380;54;19963;-77
2022/03/21 00:06:46;;;;;;;14.60;9.27;;;;;;;9.37;40.10;101229.47;1090762;39;20866;-78
2022/03/21 00:07:51;;;;;;;12.32;8.75;;;;;;;9.41;39.94;101230.97;1088343;54;20078;-77
2022/03/21 00:08:52;;;;;;;11.30;8.20;;;;;;;9.40;40.09;101234.59;1088283;54;20038;-78
2022/03/21 00:09:57;;;;;;;14.30;10.65;;;;;;;9.39;39.83;101230.22;1088290;54;20034;-78
2022/03/21 00:10:59;;;;;;;14.32;9.63;;;;;;;9.41;39.80;101238.09;1088253;54;20031;-79
2022/03/21 00:12:04;;;;;;;12.85;9.10;;;;;;;9.40;39.99;101237.28;1088604;46;20027;-79
2022/03/21 00:13:06;;;;;;;13.32;8.70;;;;;;;9.41;39.74;101238.97;1088267;54;20046;-78
2022/03/21 00:14:12;;;;;;;13.23;10.10;;;;;;;9.33;40.20;101233.34;1088231;54;20041;-79
2022/03/21 00:15:14;;;;;;;12.20;9.25;;;;;;;9.26;40.36;101235.56;1088211;54;20034;-78
2022/03/21 00:16:18;;;;;;;14.40;10.57;;;;;;;9.11;40.74;101239.31;1088308;54;20034;-76
2022/03/21 00:17:20;;;;;;;12.73;10.10;;;;;;;9.12;40.82;101233.88;1091294;39;20575;-79
2022/03/21 00:18:25;;;;;;;12.73;9.27;;;;;;;9.16;40.40;101235.34;1088329;54;20030;-78
2022/03/21 00:19:27;;;;;;;13.82;9.75;;;;;;;9.13;40.40;101254.25;1088158;54;20038;-78
2022/03/21 00:20:34;;;;;;;13.63;9.55;;;;;;;9.14;40.43;101237.28;1088336;54;20025;-78
2022/03/21 00:21:36;;;;;;;14.05;9.45;;;;;;;9.14;40.48;101237.28;1088139;54;20057;-79
2022/03/21 00:22:41;;;;;;;12.65;8.65;;;;;;;9.17;40.25;101246.88;1089832;39;20660;-81
2022/03/21 00:23:42;;;;;;;13.38;8.95;;;;;;;9.18;40.23;101244.09;1088105;54;20018;-79
2022/03/21 00:24:46;;;;;;;12.30;8.55;;;;;;;9.20;40.16;101242.19;1088219;54;20057;-78
2022/03/21 00:25:51;;;;;;;11.32;8.30;;;;;;;9.23;39.96;101245.59;1091454;46;20760;-78
2022/03/21 00:26:52;;;;;;;12.05;8.20;;;;;;;9.18;40.26;101238.75;1088287;54;20041;-77
2022/03/21 00:27:58;;;;;;;13.32;8.45;;;;;;;9.20;39.96;101238.69;1088236;54;20038;-78
2022/03/21 00:29:02;;;;;;;12.02;8.40;;;;;;;9.19;40.10;101239.63;1088671;39;20681;-78
2022/03/21 00:30:05;;;;;;;11.98;7.93;;;;;;;9.22;40.18;101239.41;1095885;39;20793;-78
2022/03/21 00:31:09;;;;;;;12.98;8.68;;;;;;;9.21;40.08;101243.03;1088312;54;20026;-77
2022/03/21 00:32:11;;;;;;;13.32;8.27;;;;;;;9.20;39.99;101234.19;1088273;54;20026;-79
2022/03/21 00:33:17;;;;;;;12.90;8.35;;;;;;;9.22;39.93;101239.41;1088284;54;20599;-78
2022/03/21 00:34:19;;;;;;;12.88;8.48;;;;;;;9.21;40.11;101229.69;1088203;54;20018;-79
2022/03/21 00:35:23;;;;;;;14.25;8.73;;;;;;;9.19;39.92;101235.13;1088199;54;20068;-77
2022/03/21 00:36:27;;;;;;;13.75;9.48;;;;;;;9.19;40.36;101239.63;1088315;54;20015;-77
2022/03/21 00:37:32;;;;;;;13.82;8.57;;;;;;;9.20;40.25;101239.50;1088796;46;20771;-78
2022/03/21 00:38:34;;;;;;;10.95;8.05;;;;;;;9.20;40.37;101236.84;1088051;54;20034;-78
2022/03/21 00:39:38;;;;;;;12.43;8.93;;;;;;;9.22;40.32;101242.06;1087857;54;20030;-77
2022/03/21 00:40:44;;;;;;;12.60;8.57;;;;;;;9.18;40.42;101233.44;1094928;39;20591;-79
2022/03/21 00:41:46;;;;;;;12.90;8.73;;;;;;;9.18;40.61;101238.75;1088272;54;20035;-76
2022/03/21 00:42:52;;;;;;;12.70;9.00;;;;;;;9.14;40.92;101242.63;1088726;46;20034;-78
2022/03/21 00:43:53;;;;;;;13.60;9.70;;;;;;;9.09;41.20;101238.56;1088270;54;20046;-77
2022/03/21 00:44:58;;;;;;;14.05;10.38;;;;;;;9.02;41.51;101243.47;1088292;54;20071;-78
2022/03/21 00:46:02;;;;;;;15.40;10.15;;;;;;;8.93;41.37;101244.09;1088300;54;20098;-78
2022/03/21 00:47:05;;;;;;;12.98;9.80;;;;;;;8.93;41.41;101244.09;1088322;54;20041;-79
2022/03/21 00:48:09;;;;;;;17.30;10.95;;;;;;;8.88;41.60;101250.56;1088309;54;20046;-77
2022/03/21 00:49:12;;;;;;;13.05;9.77;;;;;;;8.84;41.47;101241.09;1088225;54;20041;-77
2022/03/21 00:50:18;;;;;;;17.02;11.43;;;;;;;8.85;41.63;101239.25;1088319;54;20035;-78
2022/03/21 00:51:22;;;;;;;15.50;9.75;;;;;;;8.86;41.42;101244.53;1088781;39;20586;-78
2022/03/21 00:52:28;;;;;;;13.88;9.85;;;;;;;8.88;41.48;101244.41;1088413;46;20030;-78
2022/03/21 00:53:33;;;;;;;13.98;10.30;;;;;;;8.88;41.43;101245.25;1088331;54;20045;-77
2022/03/21 00:54:34;;;;;;;13.27;9.55;;;;;;;8.85;41.58;101252.59;1088190;54;20031;-77
2022/03/21 00:55:40;;;;;;;15.18;9.95;;;;;;;8.82;41.79;101245.66;1087827;54;20030;-77
2022/03/21 00:56:41;;;;;;;13.30;10.02;;;;;;;8.77;42.08;101239.81;1087943;54;20030;-77
2022/03/21 00:57:46;;;;;;;13.82;10.30;;;;;;;8.73;42.11;101246.28;1089441;46;20042;-77
2022/03/21 00:58:48;;;;;;;14.88;10.23;;;;;;;8.66;42.33;101245.84;1088238;54;20015;-78
2022/03/21 00:59:54;;;;;;;16.05;10.43;;;;;;;8.60;42.38;101248.09;1088314;54;20761;-78
2022/03/21 01:00:56;;;;;;;15.32;10.35;;;;;;;8.58;42.18;101248.19;1089878;46;20038;-77
2022/03/21 01:02:00;;;;;;;15.15;10.50;;;;;;;8.52;42.14;101243.25;1087791;54;20073;-77
2022/03/21 01:03:05;;;;;;;15.85;10.85;;;;;;;8.51;42.36;101250.38;1088130;54;20046;-78
2022/03/21 01:04:06;;;;;;;14.68;10.60;;;;;;;8.49;42.43;101249.66;1088273;54;20019;-78
2022/03/21 01:05:12;;;;;;;12.73;9.77;;;;;;;8.50;42.13;101248.69;1088300;54;20031;-77
2022/03/21 01:06:13;;;;;;;13.23;9.60;;;;;;;8.45;42.45;101250.78;1091037;46;20046;-77
2022/03/21 01:07:18;;;;;;;13.13;9.32;;;;;;;8.47;42.17;101246.22;1088351;54;20033;-77
2022/03/21 01:08:23;;;;;;;13.02;8.98;;;;;;;8.48;42.10;101242.63;1088335;54;20015;-78
2022/03/21 01:09:27;;;;;;;12.23;8.73;;;;;;;8.50;41.88;101254.00;1088325;54;20034;-78
2022/03/21 01:10:32;;;;;;;12.10;8.48;;;;;;;8.53;41.89;101245.81;1088306;54;20019;-78
2022/03/21 01:11:34;;;;;;;13.55;9.73;;;;;;;8.42;42.83;101251.84;1088327;54;20030;-77
2022/03/21 01:12:39;;;;;;;16.92;11.25;;;;;;;8.22;43.70;101254.94;1087944;54;20030;-78
2022/03/21 01:13:42;;;;;;;16.02;11.60;;;;;;;8.17;44.33;101252.59;1087884;54;20034;-78
2022/03/21 01:14:46;;;;;;;15.60;11.88;;;;;;;8.21;44.68;101253.22;1090776;46;20034;-78
2022/03/21 01:15:50;;;;;;;17.33;11.40;;;;;;;8.25;44.72;101255.59;1090619;46;20046;-77
2022/03/21 01:16:55;;;;;;;16.38;10.90;;;;;;;8.27;44.76;101258.16;1088257;54;20038;-78
2022/03/21 01:18:00;;;;;;;15.68;11.05;;;;;;;8.30;44.68;101263.28;1089267;46;20010;-78
2022/03/21 01:19:01;;;;;;;15.27;10.93;;;;;;;8.28;45.02;101260.75;1088184;54;20042;-78
2022/03/21 01:20:07;;;;;;;13.60;9.73;;;;;;;8.32;44.83;101260.50;1088174;54;20089;-77
2022/03/21 01:21:08;;;;;;;12.13;9.35;;;;;;;8.24;45.32;101259.22;1088162;46;20046;-76
2022/03/21 01:22:13;;;;;;;15.27;10.85;;;;;;;8.27;45.29;101261.69;1088219;54;20042;-77
2022/03/21 01:23:14;;;;;;;14.27;10.20;;;;;;;8.27;45.33;101250.16;1091071;39;20578;-77
2022/03/21 01:24:21;;;;;;;13.57;9.52;;;;;;;8.26;45.56;101262.63;1088129;54;20706;-78
2022/03/21 01:25:23;;;;;;;13.15;9.63;;;;;;;8.30;45.24;101262.44;1087949;54;20042;-77
2022/03/21 01:26:27;;;;;;;14.27;9.48;;;;;;;8.35;45.17;101255.00;1088838;46;20035;-77
2022/03/21 01:27:29;;;;;;;12.93;9.63;;;;;;;8.33;45.38;101264.91;1088175;54;20051;-78
2022/03/21 01:28:33;;;;;;;12.98;9.25;;;;;;;8.32;45.54;101265.84;1088170;54;20022;-77
2022/03/21 01:29:35;;;;;;;13.25;9.73;;;;;;;8.31;45.60;101269.50;1087835;54;20026;-77
2022/03/21 01:30:40;;;;;;;15.55;10.60;;;;;;;8.24;45.75;101264.53;1088356;39;20660;-77
2022/03/21 01:31:41;;;;;;;12.85;9.40;;;;;;;8.24;45.74;101271.69;1088161;54;20074;-78
2022/03/21 01:32:46;;;;;;;13.25;9.98;;;;;;;8.22;45.57;101274.44;1090659;39;20634;-77
2022/03/21 01:33:47;;;;;;;14.95;10.60;;;;;;;8.16;45.46;101282.84;1088130;54;20023;-77
2022/03/21 01:34:51;;;;;;;14.07;10.02;;;;;;;8.16;45.62;101280.16;1088116;54;20879;-78
2022/03/21 01:35:55;;;;;;;14.88;10.25;;;;;;;8.14;45.92;101282.06;1088156;54;20057;-77
2022/03/21 01:36:57;;;;;;;15.13;10.20;;;;;;;8.13;45.69;101283.03;1088132;54;20031;-77
2022/03/21 01:38:01;;;;;;;14.57;10.18;;;;;;;8.05;46.03;101286.19;1088129;54;20037;-78
2022/03/21 01:39:03;;;;;;;14.00;10.65;;;;;;;8.09;46.09;101292.19;1088152;54;20030;-78
2022/03/21 01:40:11;;;;;;;15.95;10.73;;;;;;;8.05;46.58;101280.88;1088268;47;20034;-77
2022/03/21 01:41:13;;;;;;;14.02;9.73;;;;;;;8.10;46.33;101285.91;1088166;54;20031;-77
2022/03/21 01:42:17;;;;;;;14.82;10.60;;;;;;;8.09;46.23;101287.69;1090912;46;20698;-77
2022/03/21 01:43:19;;;;;;;14.10;10.05;;;;;;;8.08;46.19;101290.47;1088089;54;20038;-77
2022/03/21 01:44:23;;;;;;;13.73;10.43;;;;;;;8.06;46.28;101287.03;1088434;46;20034;-77
2022/03/21 01:45:28;;;;;;;14.60;10.70;;;;;;;8.00;46.55;101284.78;1088028;54;20045;-77
2022/03/21 01:46:32;;;;;;;12.85;9.98;;;;;;;8.00;46.56;101285.63;1087713;54;20038;-78
2022/03/21 01:47:34;;;;;;;14.15;10.63;;;;;;;7.99;46.34;101286.56;1092065;39;20705;-78
2022/03/21 01:48:39;;;;;;;14.95;11.50;;;;;;;7.95;46.34;101283.25;1088097;54;20030;-78
2022/03/21 01:49:40;;;;;;;16.20;10.30;;;;;;;7.95;46.29;101290.41;1088107;54;20031;-78
2022/03/21 01:50:45;;;;;;;15.05;10.35;;;;;;;7.93;46.26;101284.31;1088144;54;20941;-79
2022/03/21 01:51:46;;;;;;;14.25;9.95;;;;;;;7.89;46.50;101296.97;1088125;54;20034;-79
2022/03/21 01:55:43;;;;;;;14.13;10.13;;;;;;;7.86;46.65;101289.16;1088144;54;20038;-79
2022/03/21 01:55:44;;;;;;;14.55;10.07;;;;;;;7.84;46.86;101287.56;1087827;54;20059;-78
2022/03/21 01:56:47;;;;;;;14.57;10.32;;;;;;;7.80;46.45;101287.72;1087965;54;20015;-79
2022/03/21 01:58:06;;;;;;;14.95;10.55;;;;;;;7.66;47.05;101295.75;1088057;54;20039;-78
2022/03/21 01:59:08;;;;;;;16.08;12.00;;;;;;;7.65;47.13;101288.72;1089714;46;20031;-78
2022/03/21 02:00:14;;;;;;;14.63;10.77;;;;;;;7.66;46.95;101290.41;1088194;54;20030;-79
2022/03/21 02:01:15;;;;;;;14.68;10.43;;;;;;;7.65;46.74;101292.22;1089124;46;20053;-79
2022/03/21 02:02:20;;;;;;;14.65;10.70;;;;;;;7.64;46.89;101287.88;1087918;54;20031;-78
2022/03/21 02:03:21;;;;;;;15.90;10.77;;;;;;;7.64;46.88;101287.88;1087493;54;20054;-78
2022/03/21 02:04:25;;;;;;;15.70;10.10;;;;;;;7.65;46.76;101283.38;1087998;54;20031;-79
2022/03/21 02:05:27;;;;;;;13.27;9.88;;;;;;;7.60;46.62;101291.66;1088133;54;20018;-78
2022/03/21 02:06:32;;;;;;;12.60;9.52;;;;;;;7.61;46.63;101290.72;1088070;54;20053;-77
2022/03/21 02:07:33;;;;;;;16.13;11.35;;;;;;;7.58;46.62;101296.22;1089299;47;20030;-77
2022/03/21 02:08:37;;;;;;;14.60;10.48;;;;;;;7.55;46.53;101290.22;1088208;54;20030;-78
2022/03/21 02:09:41;;;;;;;12.55;9.60;;;;;;;7.57;46.55;101285.66;1088118;54;20038;-78
2022/03/21 02:10:51;;;;;;;14.57;10.13;;;;;;;7.58;46.64;101290.88;1088205;54;20030;-78
2022/03/21 02:11:54;;;;;;;12.23;9.25;;;;;;;7.56;46.68;101289.28;1088152;54;20057;-78
2022/03/21 02:12:58;;;;;;;13.18;9.43;;;;;;;7.56;46.67;101292.78;1088932;47;20025;-77
2022/03/21 02:14:01;;;;;;;14.38;9.88;;;;;;;7.59;46.38;101289.94;1088100;54;20023;-78
2022/03/21 02:15:07;;;;;;;14.25;9.82;;;;;;;7.56;46.58;101287.47;1090377;47;20670;-79
2022/03/21 02:16:08;;;;;;;18.08;11.65;;;;;;;7.53;46.78;101289.47;1088121;54;20065;-78
2022/03/21 02:17:15;;;;;;;14.77;10.38;;;;;;;7.52;46.81;101288.63;1088126;54;20057;-78
2022/03/21 02:18:19;;;;;;;18.83;10.20;;;;;;;7.53;46.91;101293.00;1088131;54;20031;-78
2022/03/21 02:19:29;;;;;;;12.88;9.45;;;;;;;7.52;46.95;101293.94;1089686;39;20694;-79
2022/03/21 02:20:33;;;;;;;14.02;9.68;;;;;;;7.53;46.80;101281.47;1087897;54;20034;-77
2022/03/21 02:21:50;;;;;;;15.50;10.57;;;;;;;7.48;47.05;101295.06;1088198;47;20022;-78
2022/03/21 02:22:59;;;;;;;14.23;9.10;;;;;;;7.47;46.81;101291.56;1088176;54;20058;-78
2022/03/21 02:24:02;;;;;;;15.65;10.45;;;;;;;7.44;46.75;101285.56;1088118;54;20023;-79
2022/03/21 02:25:25;;;;;;;15.02;10.50;;;;;;;7.37;47.53;101292.22;1088154;54;20030;-78
2022/03/21 02:26:28;;;;;;;14.25;10.27;;;;;;;7.36;46.87;101282.53;1088177;54;20030;-79
2022/03/21 02:27:34;;;;;;;14.88;10.45;;;;;;;7.38;47.03;101288.59;1088103;54;20040;-77
2022/03/21 02:28:36;;;;;;;13.90;9.90;;;;;;;7.37;47.18;101289.56;1087856;54;20034;-78
2022/03/21 02:29:41;;;;;;;14.65;10.00;;;;;;;7.34;47.07;101279.94;1087703;54;20031;-79
2022/03/21 02:30:46;;;;;;;14.45;9.90;;;;;;;7.33;47.37;101284.41;1087769;54;20027;-78
2022/03/21 02:31:51;;;;;;;15.40;10.27;;;;;;;7.34;47.19;101286.13;1087677;54;20031;-78
2022/03/21 02:32:54;;;;;;;13.45;9.95;;;;;;;7.33;47.49;101287.09;1087719;54;20034;-78
2022/03/21 02:33:59;;;;;;;17.02;10.38;;;;;;;7.33;47.45;101284.41;1087653;54;20035;-79
2022/03/21 02:35:01;;;;;;;13.13;9.48;;;;;;;7.36;47.21;101290.50;1087921;54;20014;-78
2022/03/21 02:36:06;;;;;;;13.70;9.23;;;;;;;7.33;47.20;101287.09;1087673;54;20738;-78
2022/03/21 02:37:13;;;;;;;13.68;10.10;;;;;;;7.33;47.32;101284.41;1087829;54;20034;-78
2022/03/21 02:38:19;;;;;;;13.98;9.85;;;;;;;7.34;47.17;101277.28;1088102;54;20019;-77
2022/03/21 02:39:21;;;;;;;13.98;9.43;;;;;;;7.34;47.12;101287.94;1088868;47;20023;-77
2022/03/21 02:40:34;;;;;;;13.93;9.75;;;;;;;7.33;47.64;101286.22;1088282;54;20078;-77
2022/03/21 02:41:38;;;;;;;13.75;9.82;;;;;;;7.36;47.13;101282.53;1088474;54;20015;-78
2022/03/21 02:42:49;;;;;;;13.07;9.20;;;;;;;7.35;47.82;101289.63;1088298;54;20797;-78
2022/03/21 02:43:54;;;;;;;14.80;9.57;;;;;;;7.28;47.63;101291.81;1088235;54;20029;-77
2022/03/21 02:44:56;;;;;;;13.32;9.77;;;;;;;7.27;47.91;101281.28;1090954;47;20038;-77
2022/03/21 02:46:08;;;;;;;13.75;9.55;;;;;;;7.23;48.34;101283.28;1088093;54;20026;-78
2022/03/21 02:47:10;;;;;;;14.95;10.02;;;;;;;7.20;47.84;101287.91;1088074;54;20035;-78
2022/03/21 02:48:14;;;;;;;13.85;9.85;;;;;;;7.17;48.22;101283.66;1088049;54;20040;-79
2022/03/21 02:49:16;;;;;;;13.98;9.65;;;;;;;7.17;48.27;101284.50;1088016;54;20697;-79
2022/03/21 02:50:28;;;;;;;13.02;9.85;;;;;;;7.21;48.18;101289.63;1088066;54;20042;-78
2022/03/21 02:51:32;;;;;;;12.95;8.98;;;;;;;7.21;48.16;101284.31;1088015;54;20040;-77
2022/03/21 02:52:37;;;;;;;14.43;8.90;;;;;;;7.21;47.97;101285.16;1087749;54;20022;-77
2022/03/21 02:53:39;;;;;;;14.52;9.98;;;;;;;7.19;48.03;101279.06;1087685;54;20411;-78
2022/03/21 02:54:43;;;;;;;12.43;9.20;;;;;;;7.20;48.07;101282.59;1087970;54;20031;-77
2022/03/21 02:55:47;;;;;;;12.60;9.60;;;;;;;7.17;48.05;101278.31;1088029;54;20022;-79
2022/03/21 02:56:53;;;;;;;13.02;9.60;;;;;;;7.21;48.16;101279.84;1088073;54;20031;-78
2022/03/21 02:57:55;;;;;;;13.88;9.38;;;;;;;7.21;48.09;101285.16;1089750;47;20015;-78
2022/03/21 02:58:59;;;;;;;11.48;8.52;;;;;;;7.23;48.22;101280.59;1088128;54;20041;-78
2022/03/21 03:00:01;;;;;;;11.07;8.18;;;;;;;7.24;48.22;101284.97;1088503;47;20058;-78
2022/03/21 03:01:13;;;;;;;12.63;9.40;;;;;;;7.21;48.50;101293.13;1088123;54;20097;-78
2022/03/21 03:02:14;;;;;;;13.75;10.45;;;;;;;7.22;48.37;101286.88;1088133;54;20039;-79
2022/03/21 03:03:18;;;;;;;13.63;10.05;;;;;;;7.22;48.22;101286.03;1088088;54;20031;-77
2022/03/21 03:04:20;;;;;;;12.25;7.90;;;;;;;7.22;48.36;101286.88;1090938;47;20034;-77
2022/03/21 03:05:24;;;;;;;12.25;8.38;;;;;;;7.22;48.47;101281.56;1088036;54;20015;-78
2022/03/21 03:06:27;;;;;;;12.10;8.98;;;;;;;7.22;48.44;101286.88;1088053;54;20041;-78
2022/03/21 03:07:31;;;;;;;13.23;9.32;;;;;;;7.22;48.56;101283.38;1088009;54;20038;-77
2022/03/21 03:08:34;;;;;;;11.75;8.73;;;;;;;7.25;48.52;101289.34;1088021;54;20061;-78
2022/03/21 03:09:38;;;;;;;11.10;8.23;;;;;;;7.25;48.54;101289.34;1087535;54;20035;-77
2022/03/21 03:10:40;;;;;;;15.82;10.80;;;;;;;7.03;49.35;101295.13;1087904;47;20023;-76
2022/03/21 03:11:47;;;;;;;14.63;10.57;;;;;;;6.91;50.27;101286.03;1089130;47;20777;-77
2022/03/21 03:12:48;;;;;;;15.20;11.23;;;;;;;6.93;49.89;101292.13;1087988;54;20030;-78
2022/03/21 03:13:53;;;;;;;18.75;11.90;;;;;;;6.90;50.02;101291.47;1087982;54;20035;-78
2022/03/21 03:14:54;;;;;;;14.20;10.50;;;;;;;6.90;50.19;101288.78;1087914;54;20652;-79
2022/03/21 03:15:59;;;;;;;15.15;11.57;;;;;;;6.86;50.48;101290.78;1087964;54;20019;-79
2022/03/21 03:17:01;;;;;;;15.65;11.75;;;;;;;6.77;50.80;101291.31;1087922;54;20094;-78
2022/03/21 03:18:05;;;;;;;18.05;11.52;;;;;;;6.62;51.59;101291.25;1088023;54;20031;-78
2022/03/21 03:19:08;;;;;;;16.92;11.90;;;;;;;6.55;52.24;101288.13;1088470;47;20038;-77
2022/03/21 03:20:13;;;;;;;18.95;12.55;;;;;;;6.51;52.29;101289.22;1090873;39;20697;-78
2022/03/21 03:21:19;;;;;;;16.10;12.00;;;;;;;6.48;52.72;101291.22;1088394;54;20034;-78
2022/03/21 03:22:26;;;;;;;17.50;13.13;;;;;;;6.35;52.94;101291.91;1088395;54;20071;-77
2022/03/21 03:23:31;;;;;;;18.40;12.35;;;;;;;6.14;53.64;101293.97;1088342;54;20030;-78
2022/03/21 03:24:37;;;;;;;19.02;13.75;;;;;;;5.96;54.03;101287.84;1088162;54;20078;-78
2022/03/21 03:25:38;;;;;;;19.23;13.65;;;;;;;5.86;54.12;101299.88;1088134;54;20038;-78
2022/03/21 03:26:43;;;;;;;15.60;12.18;;;;;;;5.82;53.96;101293.91;1087710;54;20754;-78
2022/03/21 03:27:47;;;;;;;17.40;13.10;;;;;;;5.89;53.47;101292.66;1088751;39;20578;-77
2022/03/21 03:28:51;;;;;;;17.98;12.80;;;;;;;5.81;53.56;101296.66;1088418;54;20766;-79
2022/03/21 03:29:53;;;;;;;16.85;12.55;;;;;;;5.65;53.82;101297.47;1088209;54;20050;-78
2022/03/21 03:30:58;;;;;;;20.38;13.50;;;;;;;5.49;54.35;101300.09;1088366;54;20022;-78
2022/03/21 03:32:03;;;;;;;22.17;12.95;;;;;;;5.34;54.84;101301.75;1089134;46;20035;-78
2022/03/21 03:33:23;;;;;;;16.55;12.40;;;;;;;5.28;55.06;101302.94;1088401;54;20061;-77
2022/03/21 03:34:25;;;;;;;17.75;12.88;;;;;;;5.23;54.82;101302.31;1088340;54;20041;-78
2022/03/21 03:35:29;;;;;;;18.98;12.35;;;;;;;5.45;54.13;101304.69;1088745;39;20613;-78
2022/03/21 03:36:33;;;;;;;21.50;13.40;;;;;;;5.23;54.83;101304.09;1088246;54;20054;-78
2022/03/21 03:37:35;;;;;;;20.63;12.93;;;;;;;5.22;54.69;101305.91;1088398;54;20042;-78
2022/03/21 03:38:46;;;;;;;18.92;13.48;;;;;;;5.28;54.70;101310.03;1088441;54;20980;-79
2022/03/21 03:39:48;;;;;;;17.80;12.73;;;;;;;5.27;54.22;101303.88;1088333;54;20043;-79
2022/03/21 03:40:54;;;;;;;18.05;12.40;;;;;;;5.18;54.41;101308.78;1088193;54;20057;-80
2022/03/21 03:41:56;;;;;;;18.38;13.10;;;;;;;5.12;54.99;101310.81;1092802;39;20611;-79
2022/03/21 03:43:02;;;;;;;17.88;12.80;;;;;;;5.11;55.12;101311.75;1087911;54;20082;-79
2022/03/21 03:44:05;;;;;;;18.88;12.63;;;;;;;5.17;54.70;101309.72;1087852;54;20030;-78
2022/03/21 03:45:10;;;;;;;20.10;13.02;;;;;;;5.09;54.75;101311.00;1088397;39;20766;-79
2022/03/21 03:46:12;;;;;;;17.13;12.32;;;;;;;5.05;54.85;101316.53;1088372;54;20726;-79
2022/03/21 03:47:16;;;;;;;19.42;13.60;;;;;;;4.99;55.05;101315.88;1088395;54;20034;-78
2022/03/21 03:48:18;;;;;;;21.40;13.75;;;;;;;4.91;55.33;101315.41;1091883;39;20622;-80
2022/03/21 03:49:23;;;;;;;17.40;12.68;;;;;;;4.90;55.38;101320.81;1088335;54;20037;-78
2022/03/21 03:50:25;;;;;;;17.80;12.73;;;;;;;5.04;54.89;101320.94;1088434;54;20031;-78
2022/03/21 03:51:30;;;;;;;15.65;11.48;;;;;;;4.99;55.14;101320.34;1088363;54;20018;-78
2022/03/21 03:52:32;;;;;;;17.75;13.18;;;;;;;4.80;55.45;101321.25;1088374;54;20034;-79
2022/03/21 03:53:36;;;;;;;16.80;12.32;;;;;;;4.88;55.23;101326.16;1088392;54;20034;-79
2022/03/21 03:54:38;;;;;;;19.45;13.05;;;;;;;4.79;55.48;101322.19;1088299;54;20042;-78
2022/03/21 03:55:42;;;;;;;17.88;12.45;;;;;;;4.75;55.63;101325.91;1088386;54;20078;-78
2022/03/21 03:56:44;;;;;;;17.70;13.23;;;;;;;4.78;55.77;101328.41;1088323;54;20097;-79
2022/03/21 03:57:48;;;;;;;17.85;12.65;;;;;;;4.81;55.40;101327.41;1088371;54;20037;-79
2022/03/21 03:58:53;;;;;;;18.75;13.27;;;;;;;4.78;55.71;101327.53;1088221;54;20030;-79
2022/03/21 03:59:57;;;;;;;17.63;12.80;;;;;;;4.72;55.66;101339.34;1087933;54;20030;-80
2022/03/21 04:01:02;;;;;;;17.65;12.20;;;;;;;4.80;55.30;101336.28;1088283;54;20021;-78
2022/03/21 04:02:04;;;;;;;15.95;12.15;;;;;;;4.79;55.19;101324.84;1088401;54;20058;-79
2022/03/21 04:04:25;;;;;;;19.58;13.15;;;;;;;4.75;55.18;101331.22;1088209;54;20015;-78
2022/03/21 04:05:27;;;;;;;17.38;13.00;;;;;;;4.74;55.25;101337.44;1088283;54;20023;-78
2022/03/21 04:06:31;;;;;;;17.13;12.63;;;;;;;4.73;55.24;101324.28;1088584;46;20046;-79
2022/03/21 04:07:32;;;;;;;18.60;13.23;;;;;;;4.68;55.51;101328.00;1087889;54;20033;-80
2022/03/21 04:08:37;;;;;;;18.08;13.20;;;;;;;4.69;55.69;101336.81;1087947;54;20041;-80
2022/03/21 04:09:40;;;;;;;17.48;12.98;;;;;;;4.69;55.48;101332.38;1088300;54;20030;-79
2022/03/21 04:10:44;;;;;;;17.05;12.35;;;;;;;4.67;55.68;101336.03;1088388;54;20127;-79
2022/03/21 04:11:48;;;;;;;18.88;13.25;;;;;;;4.69;55.56;101336.81;1088350;54;20910;-79
2022/03/21 04:12:50;;;;;;;17.23;13.43;;;;;;;4.67;55.61;101338.69;1088267;54;20038;-78
2022/03/21 04:13:57;;;;;;;18.65;13.77;;;;;;;4.59;56.14;101340.84;1088329;54;20034;-79
2022/03/21 04:14:59;;;;;;;19.10;12.98;;;;;;;4.50;56.43;101335.06;1088301;54;20019;-79
2022/03/21 04:16:03;;;;;;;19.10;13.70;;;;;;;4.55;56.10;101336.63;1088040;54;20034;-79
2022/03/21 04:17:04;;;;;;;18.17;13.25;;;;;;;4.53;56.02;101329.59;1088007;54;20062;-79
2022/03/21 04:18:09;;;;;;;20.00;13.48;;;;;;;4.56;55.91;101336.56;1088403;54;20647;-79
2022/03/21 04:19:13;;;;;;;18.30;13.40;;;;;;;4.63;55.88;101345.94;1088296;54;20041;-79
2022/03/21 04:20:17;;;;;;;18.25;13.40;;;;;;;4.64;55.89;101342.34;1088349;54;20030;-79
2022/03/21 04:21:19;;;;;;;16.80;11.80;;;;;;;4.65;55.65;101343.19;1088316;54;20034;-80
2022/03/21 04:22:23;;;;;;;16.70;12.55;;;;;;;4.62;55.92;101341.56;1088338;54;20079;-78
2022/03/21 04:23:25;;;;;;;18.90;13.30;;;;;;;4.80;55.23;101337.16;1088312;54;20769;-78
2022/03/21 04:24:29;;;;;;;15.32;11.25;;;;;;;4.94;54.94;101344.41;1088275;54;20037;-78
2022/03/21 04:25:31;;;;;;;15.98;11.77;;;;;;;5.01;54.58;101334.34;1088241;54;20042;-79
2022/03/21 04:26:35;;;;;;;14.18;10.75;;;;;;;5.10;54.43;101344.47;1088326;54;20041;-79
2022/03/21 04:27:37;;;;;;;17.05;10.65;;;;;;;5.17;54.04;101341.53;1088173;54;20104;-79
2022/03/21 04:28:41;;;;;;;14.00;10.18;;;;;;;5.23;53.96;101343.88;1088297;54;20079;-79
2022/03/21 04:29:45;;;;;;;14.32;10.52;;;;;;;5.28;53.71;101344.50;1088382;54;20034;-78
2022/03/21 04:30:50;;;;;;;15.60;10.50;;;;;;;5.34;53.60;101343.34;1090663;46;20041;-79
2022/03/21 04:31:52;;;;;;;13.95;10.40;;;;;;;5.32;53.85;101351.34;1088411;54;20026;-80
2022/03/21 04:32:56;;;;;;;20.05;12.73;;;;;;;5.06;54.50;101347.38;1088009;54;20042;-80
2022/03/21 04:33:58;;;;;;;18.42;13.35;;;;;;;4.97;55.11;101346.91;1088138;54;20868;-79
2022/03/21 04:35:02;;;;;;;18.33;13.20;;;;;;;4.94;55.24;101341.78;1088209;54;20030;-78
2022/03/21 04:36:08;;;;;;;19.92;13.25;;;;;;;4.89;55.69;101342.94;1088331;54;20034;-79
2022/03/21 04:37:12;;;;;;;18.10;13.27;;;;;;;4.85;55.84;101350.19;1092783;39;20715;-79
2022/03/21 04:38:14;;;;;;;18.73;13.80;;;;;;;4.79;56.09;101348.69;1089970;46;20117;-79
2022/03/21 04:39:18;;;;;;;18.42;13.65;;;;;;;4.69;56.53;101350.91;1088292;54;20030;-79
2022/03/21 04:40:20;;;;;;;22.27;15.65;;;;;;;4.75;56.76;101359.50;1088262;54;20038;-79
2022/03/21 04:41:24;;;;;;;19.42;14.27;;;;;;;4.82;56.53;101352.97;1088344;54;20030;-79
2022/03/21 04:42:25;;;;;;;20.88;13.68;;;;;;;4.75;56.43;101352.41;1088299;54;20055;-78
2022/03/21 04:43:30;;;;;;;19.98;14.98;;;;;;;4.71;56.98;101365.88;1088328;54;20061;-78
2022/03/21 04:44:31;;;;;;;21.10;13.98;;;;;;;4.75;56.99;101362.16;1088233;54;20030;-78
2022/03/21 04:45:38;;;;;;;19.50;13.45;;;;;;;4.71;57.17;101358.81;1088271;54;20038;-78
2022/03/21 04:46:39;;;;;;;21.38;14.18;;;;;;;4.73;56.93;101356.06;1088290;54;20042;-79
2022/03/21 04:47:44;;;;;;;19.63;13.48;;;;;;;4.77;56.85;101358.50;1088277;54;20035;-79
2022/03/21 04:48:45;;;;;;;18.98;14.60;;;;;;;4.67;56.81;101366.06;1088176;54;20033;-78
2022/03/21 04:49:50;;;;;;;19.45;14.20;;;;;;;4.63;56.84;101356.53;1087847;54;20037;-78
2022/03/21 04:50:51;;;;;;;20.80;14.25;;;;;;;4.59;56.96;101352.28;1088132;54;20046;-78
2022/03/21 04:51:55;;;;;;;21.55;15.23;;;;;;;4.59;56.92;101359.38;1088253;54;20037;-78
2022/03/21 04:52:58;;;;;;;19.15;14.13;;;;;;;4.49;57.16;101365.13;1088311;54;20030;-78
2022/03/21 04:54:04;;;;;;;20.33;14.43;;;;;;;4.43;57.35;101367.19;1088297;54;20026;-78
2022/03/21 04:55:07;;;;;;;21.63;15.13;;;;;;;4.39;57.37;101360.34;1088236;54;20038;-78
2022/03/21 04:56:12;;;;;;;20.55;14.43;;;;;;;4.31;57.72;101360.72;1088242;54;20710;-78
2022/03/21 04:57:14;;;;;;;20.20;15.02;;;;;;;4.28;57.50;101358.19;1088238;54;20023;-78
2022/03/21 04:58:18;;;;;;;19.77;14.43;;;;;;;4.32;57.55;101363.28;1089389;46;20639;-79